sensor_id;sensor_type;location;lat;lon;timestamp;P1;durP1;ratioP1;P2;durP2;ratioP2
34134;SDS011;20410;55.578;12.968;2022-07-29T00:00:02;6.80;;;3.30;;
34134;SDS011;20410;55.578;12.968;2022-07-29T00:02:29;7.97;;;3.90;;
34134;SDS011;20410;55.578;12.968;2022-07-29T00:04:56;8.00;;;3.90;;
34134;SDS011;20410;55.578;12.968;2022-07-29T00:07:22;6.97;;;4.00;;
34134;SDS011;20410;55.578;12.968;2022-07-29T00:09:48;9.50;;;4.10;;
34134;SDS011;20410;55.578;12.968;2022-07-29T00:12:13;9.70;;;4.03;;
34134;SDS011;20410;55.578;12.968;2022-07-29T00:14:39;10.27;;;4.33;;
34134;SDS011;20410;55.578;12.968;2022-07-29T00:17:04;10.10;;;4.20;;
34134;SDS011;20410;55.578;12.968;2022-07-29T00:19:30;9.33;;;4.07;;
34134;SDS011;20410;55.578;12.968;2022-07-29T00:21:55;10.03;;;3.90;;
34134;SDS011;20410;55.578;12.968;2022-07-29T00:24:21;9.33;;;4.23;;
34134;SDS011;20410;55.578;12.968;2022-07-29T00:26:46;7.13;;;3.73;;
34134;SDS011;20410;55.578;12.968;2022-07-29T00:29:12;10.57;;;4.13;;
34134;SDS011;20410;55.578;12.968;2022-07-29T00:31:38;6.33;;;3.03;;
34134;SDS011;20410;55.578;12.968;2022-07-29T00:34:03;6.83;;;3.43;;
34134;SDS011;20410;55.578;12.968;2022-07-29T00:36:29;9.13;;;3.70;;
34134;SDS011;20410;55.578;12.968;2022-07-29T00:38:54;6.27;;;3.67;;
34134;SDS011;20410;55.578;12.968;2022-07-29T00:41:20;8.47;;;3.67;;
34134;SDS011;20410;55.578;12.968;2022-07-29T00:43:46;6.93;;;3.50;;
34134;SDS011;20410;55.578;12.968;2022-07-29T00:46:11;10.33;;;3.80;;
34134;SDS011;20410;55.578;12.968;2022-07-29T00:48:37;6.43;;;3.10;;
34134;SDS011;20410;55.578;12.968;2022-07-29T00:51:03;7.10;;;3.83;;
34134;SDS011;20410;55.578;12.968;2022-07-29T00:53:30;7.30;;;3.40;;
34134;SDS011;20410;55.578;12.968;2022-07-29T00:55:56;7.87;;;3.20;;
34134;SDS011;20410;55.578;12.968;2022-07-29T00:58:23;7.63;;;4.10;;
34134;SDS011;20410;55.578;12.968;2022-07-29T01:00:49;7.43;;;3.47;;
34134;SDS011;20410;55.578;12.968;2022-07-29T01:03:15;7.73;;;3.30;;
34134;SDS011;20410;55.578;12.968;2022-07-29T01:05:41;7.83;;;3.77;;
34134;SDS011;20410;55.578;12.968;2022-07-29T01:08:08;8.93;;;3.80;;
34134;SDS011;20410;55.578;12.968;2022-07-29T01:10:36;9.33;;;3.67;;
34134;SDS011;20410;55.578;12.968;2022-07-29T01:13:03;9.70;;;3.53;;
34134;SDS011;20410;55.578;12.968;2022-07-29T01:15:29;6.87;;;3.83;;
34134;SDS011;20410;55.578;12.968;2022-07-29T01:18:01;6.57;;;3.40;;
34134;SDS011;20410;55.578;12.968;2022-07-29T01:31:35;7.97;;;3.70;;
34134;SDS011;20410;55.578;12.968;2022-07-29T01:34:23;5.93;;;3.10;;
34134;SDS011;20410;55.578;12.968;2022-07-29T01:37:04;7.53;;;3.30;;
34134;SDS011;20410;55.578;12.968;2022-07-29T01:39:35;5.93;;;2.97;;
34134;SDS011;20410;55.578;12.968;2022-07-29T01:42:07;7.27;;;3.13;;
34134;SDS011;20410;55.578;12.968;2022-07-29T01:44:35;6.63;;;3.20;;
34134;SDS011;20410;55.578;12.968;2022-07-29T01:47:15;7.70;;;3.20;;
34134;SDS011;20410;55.578;12.968;2022-07-29T01:49:46;5.23;;;2.70;;
34134;SDS011;20410;55.578;12.968;2022-07-29T01:52:18;5.53;;;2.57;;
34134;SDS011;20410;55.578;12.968;2022-07-29T01:54:52;4.90;;;2.50;;
34134;SDS011;20410;55.578;12.968;2022-07-29T01:57:20;8.27;;;3.03;;
34134;SDS011;20410;55.578;12.968;2022-07-29T01:59:52;6.73;;;2.67;;
34134;SDS011;20410;55.578;12.968;2022-07-29T02:02:20;6.73;;;2.80;;
34134;SDS011;20410;55.578;12.968;2022-07-29T02:04:47;7.53;;;2.93;;
34134;SDS011;20410;55.578;12.968;2022-07-29T02:07:19;5.90;;;2.90;;
34134;SDS011;20410;55.578;12.968;2022-07-29T02:09:49;6.97;;;2.70;;
34134;SDS011;20410;55.578;12.968;2022-07-29T02:12:16;6.47;;;2.90;;
34134;SDS011;20410;55.578;12.968;2022-07-29T02:14:45;7.30;;;2.57;;
34134;SDS011;20410;55.578;12.968;2022-07-29T02:17:13;5.23;;;2.93;;
34134;SDS011;20410;55.578;12.968;2022-07-29T02:19:46;7.53;;;2.93;;
34134;SDS011;20410;55.578;12.968;2022-07-29T02:22:13;4.30;;;2.80;;
34134;SDS011;20410;55.578;12.968;2022-07-29T02:24:41;7.63;;;3.00;;
34134;SDS011;20410;55.578;12.968;2022-07-29T02:27:07;6.37;;;2.87;;
34134;SDS011;20410;55.578;12.968;2022-07-29T02:29:34;6.27;;;3.00;;
34134;SDS011;20410;55.578;12.968;2022-07-29T02:32:00;7.23;;;3.13;;
34134;SDS011;20410;55.578;12.968;2022-07-29T02:34:28;5.90;;;2.67;;
34134;SDS011;20410;55.578;12.968;2022-07-29T02:36:54;11.07;;;3.10;;
34134;SDS011;20410;55.578;12.968;2022-07-29T02:39:21;6.07;;;2.57;;
34134;SDS011;20410;55.578;12.968;2022-07-29T02:41:52;7.20;;;2.70;;
34134;SDS011;20410;55.578;12.968;2022-07-29T02:44:24;6.80;;;3.10;;
34134;SDS011;20410;55.578;12.968;2022-07-29T02:46:52;6.83;;;2.93;;
34134;SDS011;20410;55.578;12.968;2022-07-29T02:49:38;5.83;;;3.30;;
34134;SDS011;20410;55.578;12.968;2022-07-29T02:52:24;5.30;;;3.07;;
34134;SDS011;20410;55.578;12.968;2022-07-29T02:57:49;4.93;;;2.73;;
34134;SDS011;20410;55.578;12.968;2022-07-29T03:00:19;4.47;;;3.00;;
34134;SDS011;20410;55.578;12.968;2022-07-29T03:02:49;7.13;;;3.20;;
34134;SDS011;20410;55.578;12.968;2022-07-29T03:05:17;7.60;;;3.00;;
34134;SDS011;20410;55.578;12.968;2022-07-29T03:07:49;6.43;;;3.03;;
34134;SDS011;20410;55.578;12.968;2022-07-29T03:10:19;4.67;;;2.90;;
34134;SDS011;20410;55.578;12.968;2022-07-29T03:12:45;8.50;;;3.10;;
34134;SDS011;20410;55.578;12.968;2022-07-29T03:15:12;8.73;;;2.80;;
34134;SDS011;20410;55.578;12.968;2022-07-29T03:17:39;5.37;;;3.00;;
34134;SDS011;20410;55.578;12.968;2022-07-29T03:20:05;6.23;;;3.33;;
34134;SDS011;20410;55.578;12.968;2022-07-29T03:22:32;3.73;;;2.60;;
34134;SDS011;20410;55.578;12.968;2022-07-29T03:25:12;4.57;;;3.00;;
34134;SDS011;20410;55.578;12.968;2022-07-29T03:27:39;7.87;;;2.80;;
34134;SDS011;20410;55.578;12.968;2022-07-29T03:30:06;7.07;;;2.63;;
34134;SDS011;20410;55.578;12.968;2022-07-29T03:32:33;7.87;;;3.10;;
34134;SDS011;20410;55.578;12.968;2022-07-29T03:34:59;5.43;;;3.47;;
34134;SDS011;20410;55.578;12.968;2022-07-29T03:37:24;6.00;;;3.60;;
34134;SDS011;20410;55.578;12.968;2022-07-29T03:39:50;9.50;;;3.83;;
34134;SDS011;20410;55.578;12.968;2022-07-29T03:42:19;6.70;;;3.70;;
34134;SDS011;20410;55.578;12.968;2022-07-29T03:44:47;6.80;;;3.33;;
34134;SDS011;20410;55.578;12.968;2022-07-29T03:47:15;7.20;;;3.40;;
34134;SDS011;20410;55.578;12.968;2022-07-29T03:49:44;7.07;;;4.03;;
34134;SDS011;20410;55.578;12.968;2022-07-29T03:52:13;7.23;;;3.47;;
34134;SDS011;20410;55.578;12.968;2022-07-29T03:54:39;6.87;;;3.40;;
34134;SDS011;20410;55.578;12.968;2022-07-29T03:57:05;6.77;;;3.67;;
34134;SDS011;20410;55.578;12.968;2022-07-29T03:59:32;8.33;;;3.87;;
34134;SDS011;20410;55.578;12.968;2022-07-29T04:01:58;6.17;;;3.50;;
34134;SDS011;20410;55.578;12.968;2022-07-29T04:04:26;7.37;;;4.10;;
34134;SDS011;20410;55.578;12.968;2022-07-29T04:06:52;8.37;;;3.60;;
34134;SDS011;20410;55.578;12.968;2022-07-29T04:09:17;8.10;;;4.40;;
34134;SDS011;20410;55.578;12.968;2022-07-29T04:11:43;7.43;;;4.20;;
34134;SDS011;20410;55.578;12.968;2022-07-29T04:14:10;9.80;;;4.40;;
34134;SDS011;20410;55.578;12.968;2022-07-29T04:16:35;8.03;;;4.77;;
34134;SDS011;20410;55.578;12.968;2022-07-29T04:19:01;7.33;;;4.67;;
34134;SDS011;20410;55.578;12.968;2022-07-29T04:21:27;6.97;;;4.30;;
34134;SDS011;20410;55.578;12.968;2022-07-29T04:23:52;8.33;;;4.47;;
34134;SDS011;20410;55.578;12.968;2022-07-29T04:26:18;7.87;;;5.00;;
34134;SDS011;20410;55.578;12.968;2022-07-29T04:28:45;10.03;;;4.63;;
34134;SDS011;20410;55.578;12.968;2022-07-29T04:31:11;11.87;;;4.80;;
34134;SDS011;20410;55.578;12.968;2022-07-29T04:33:37;7.80;;;4.33;;
34134;SDS011;20410;55.578;12.968;2022-07-29T04:36:03;9.80;;;4.77;;
34134;SDS011;20410;55.578;12.968;2022-07-29T04:38:29;8.83;;;4.93;;
34134;SDS011;20410;55.578;12.968;2022-07-29T04:40:55;7.33;;;5.00;;
34134;SDS011;20410;55.578;12.968;2022-07-29T04:43:21;9.83;;;4.83;;
34134;SDS011;20410;55.578;12.968;2022-07-29T04:45:46;5.37;;;4.07;;
34134;SDS011;20410;55.578;12.968;2022-07-29T04:48:12;7.53;;;5.10;;
34134;SDS011;20410;55.578;12.968;2022-07-29T04:50:38;8.90;;;5.33;;
34134;SDS011;20410;55.578;12.968;2022-07-29T04:53:04;8.63;;;5.30;;
34134;SDS011;20410;55.578;12.968;2022-07-29T04:55:30;8.73;;;5.50;;
34134;SDS011;20410;55.578;12.968;2022-07-29T04:57:56;8.37;;;5.40;;
34134;SDS011;20410;55.578;12.968;2022-07-29T05:00:21;8.63;;;5.47;;
34134;SDS011;20410;55.578;12.968;2022-07-29T05:02:48;7.13;;;4.90;;
34134;SDS011;20410;55.578;12.968;2022-07-29T05:05:14;13.47;;;5.57;;
34134;SDS011;20410;55.578;12.968;2022-07-29T05:07:39;9.77;;;4.80;;
34134;SDS011;20410;55.578;12.968;2022-07-29T05:10:05;11.30;;;5.10;;
34134;SDS011;20410;55.578;12.968;2022-07-29T05:12:31;11.40;;;5.20;;
34134;SDS011;20410;55.578;12.968;2022-07-29T05:14:56;8.73;;;5.17;;
34134;SDS011;20410;55.578;12.968;2022-07-29T05:17:22;10.20;;;5.23;;
34134;SDS011;20410;55.578;12.968;2022-07-29T05:19:48;7.20;;;5.00;;
34134;SDS011;20410;55.578;12.968;2022-07-29T05:22:15;11.10;;;5.10;;
34134;SDS011;20410;55.578;12.968;2022-07-29T05:24:41;7.10;;;4.20;;
34134;SDS011;20410;55.578;12.968;2022-07-29T05:27:06;8.03;;;4.67;;
34134;SDS011;20410;55.578;12.968;2022-07-29T05:29:32;10.70;;;4.57;;
34134;SDS011;20410;55.578;12.968;2022-07-29T05:31:57;8.33;;;3.83;;
34134;SDS011;20410;55.578;12.968;2022-07-29T05:34:23;10.17;;;4.00;;
34134;SDS011;20410;55.578;12.968;2022-07-29T05:36:49;9.47;;;3.53;;
34134;SDS011;20410;55.578;12.968;2022-07-29T05:39:15;9.75;;;3.38;;
34134;SDS011;20410;55.578;12.968;2022-07-29T05:41:41;7.80;;;3.05;;
34134;SDS011;20410;55.578;12.968;2022-07-29T05:44:06;7.30;;;2.97;;
34134;SDS011;20410;55.578;12.968;2022-07-29T05:46:32;6.03;;;3.08;;
34134;SDS011;20410;55.578;12.968;2022-07-29T05:48:57;6.80;;;2.90;;
34134;SDS011;20410;55.578;12.968;2022-07-29T05:51:23;9.77;;;3.43;;
34134;SDS011;20410;55.578;12.968;2022-07-29T05:53:48;8.68;;;2.80;;
34134;SDS011;20410;55.578;12.968;2022-07-29T05:56:14;8.48;;;2.78;;
34134;SDS011;20410;55.578;12.968;2022-07-29T05:58:40;6.22;;;2.92;;
34134;SDS011;20410;55.578;12.968;2022-07-29T06:01:06;6.65;;;2.90;;
34134;SDS011;20410;55.578;12.968;2022-07-29T06:03:31;9.35;;;2.92;;
34134;SDS011;20410;55.578;12.968;2022-07-29T06:05:57;9.55;;;3.20;;
34134;SDS011;20410;55.578;12.968;2022-07-29T06:08:22;6.22;;;3.08;;
34134;SDS011;20410;55.578;12.968;2022-07-29T06:10:48;5.30;;;2.97;;
34134;SDS011;20410;55.578;12.968;2022-07-29T06:13:14;8.48;;;2.85;;
34134;SDS011;20410;55.578;12.968;2022-07-29T06:15:41;6.97;;;2.78;;
34134;SDS011;20410;55.578;12.968;2022-07-29T06:18:07;5.45;;;2.80;;
34134;SDS011;20410;55.578;12.968;2022-07-29T06:20:34;8.82;;;3.13;;
34134;SDS011;20410;55.578;12.968;2022-07-29T06:23:00;9.45;;;3.10;;
34134;SDS011;20410;55.578;12.968;2022-07-29T06:25:26;6.78;;;2.80;;
34134;SDS011;20410;55.578;12.968;2022-07-29T06:27:56;6.40;;;2.83;;
34134;SDS011;20410;55.578;12.968;2022-07-29T06:30:22;7.18;;;2.85;;
34134;SDS011;20410;55.578;12.968;2022-07-29T06:32:48;7.55;;;2.75;;
34134;SDS011;20410;55.578;12.968;2022-07-29T06:35:14;8.35;;;2.80;;
34134;SDS011;20410;55.578;12.968;2022-07-29T06:37:39;8.07;;;2.95;;
34134;SDS011;20410;55.578;12.968;2022-07-29T06:40:05;10.15;;;3.40;;
34134;SDS011;20410;55.578;12.968;2022-07-29T06:42:50;6.28;;;2.78;;
34134;SDS011;20410;55.578;12.968;2022-07-29T06:45:15;7.47;;;2.60;;
34134;SDS011;20410;55.578;12.968;2022-07-29T06:47:41;6.03;;;3.00;;
34134;SDS011;20410;55.578;12.968;2022-07-29T06:50:07;6.35;;;2.90;;
34134;SDS011;20410;55.578;12.968;2022-07-29T06:52:36;8.27;;;3.05;;
34134;SDS011;20410;55.578;12.968;2022-07-29T06:55:02;9.00;;;3.30;;
34134;SDS011;20410;55.578;12.968;2022-07-29T06:57:28;6.35;;;3.00;;
34134;SDS011;20410;55.578;12.968;2022-07-29T06:59:55;5.90;;;2.95;;
34134;SDS011;20410;55.578;12.968;2022-07-29T07:02:21;3.95;;;2.70;;
34134;SDS011;20410;55.578;12.968;2022-07-29T07:04:47;6.85;;;2.90;;
34134;SDS011;20410;55.578;12.968;2022-07-29T07:07:13;4.75;;;2.95;;
34134;SDS011;20410;55.578;12.968;2022-07-29T07:09:38;7.68;;;2.80;;
34134;SDS011;20410;55.578;12.968;2022-07-29T07:12:04;6.63;;;3.30;;
34134;SDS011;20410;55.578;12.968;2022-07-29T07:14:30;6.03;;;2.85;;
34134;SDS011;20410;55.578;12.968;2022-07-29T07:16:56;5.90;;;2.70;;
34134;SDS011;20410;55.578;12.968;2022-07-29T07:19:22;7.13;;;3.22;;
34134;SDS011;20410;55.578;12.968;2022-07-29T07:21:47;7.38;;;3.13;;
34134;SDS011;20410;55.578;12.968;2022-07-29T07:24:13;7.90;;;2.90;;
34134;SDS011;20410;55.578;12.968;2022-07-29T07:26:39;7.20;;;3.00;;
34134;SDS011;20410;55.578;12.968;2022-07-29T07:29:05;5.78;;;3.05;;
34134;SDS011;20410;55.578;12.968;2022-07-29T07:31:30;5.93;;;2.70;;
34134;SDS011;20410;55.578;12.968;2022-07-29T07:33:56;7.07;;;2.83;;
34134;SDS011;20410;55.578;12.968;2022-07-29T07:36:22;5.93;;;2.75;;
34134;SDS011;20410;55.578;12.968;2022-07-29T07:38:48;6.60;;;2.53;;
34134;SDS011;20410;55.578;12.968;2022-07-29T07:41:14;6.45;;;2.78;;
34134;SDS011;20410;55.578;12.968;2022-07-29T07:43:39;4.93;;;2.58;;
34134;SDS011;20410;55.578;12.968;2022-07-29T07:46:05;5.28;;;2.45;;
34134;SDS011;20410;55.578;12.968;2022-07-29T07:48:31;5.95;;;2.63;;
34134;SDS011;20410;55.578;12.968;2022-07-29T07:50:56;4.65;;;2.90;;
34134;SDS011;20410;55.578;12.968;2022-07-29T07:53:22;4.40;;;2.58;;
34134;SDS011;20410;55.578;12.968;2022-07-29T07:55:48;5.15;;;2.40;;
34134;SDS011;20410;55.578;12.968;2022-07-29T07:58:13;7.45;;;2.53;;
34134;SDS011;20410;55.578;12.968;2022-07-29T08:00:39;5.07;;;2.10;;
34134;SDS011;20410;55.578;12.968;2022-07-29T08:03:04;3.70;;;1.85;;
34134;SDS011;20410;55.578;12.968;2022-07-29T08:05:30;4.68;;;2.28;;
34134;SDS011;20410;55.578;12.968;2022-07-29T08:07:56;4.63;;;2.30;;
34134;SDS011;20410;55.578;12.968;2022-07-29T08:10:21;4.43;;;2.42;;
34134;SDS011;20410;55.578;12.968;2022-07-29T08:13:06;4.13;;;2.22;;
34134;SDS011;20410;55.578;12.968;2022-07-29T08:15:32;4.82;;;2.05;;
34134;SDS011;20410;55.578;12.968;2022-07-29T08:17:58;5.05;;;2.33;;
34134;SDS011;20410;55.578;12.968;2022-07-29T08:20:24;4.47;;;2.10;;
34134;SDS011;20410;55.578;12.968;2022-07-29T08:22:51;5.10;;;2.05;;
34134;SDS011;20410;55.578;12.968;2022-07-29T08:25:18;4.22;;;1.80;;
34134;SDS011;20410;55.578;12.968;2022-07-29T08:27:45;5.07;;;2.08;;
34134;SDS011;20410;55.578;12.968;2022-07-29T08:30:11;4.75;;;2.20;;
34134;SDS011;20410;55.578;12.968;2022-07-29T08:32:38;4.28;;;2.15;;
34134;SDS011;20410;55.578;12.968;2022-07-29T08:35:03;5.50;;;2.00;;
34134;SDS011;20410;55.578;12.968;2022-07-29T08:37:29;4.70;;;1.92;;
34134;SDS011;20410;55.578;12.968;2022-07-29T08:39:55;4.53;;;1.75;;
34134;SDS011;20410;55.578;12.968;2022-07-29T08:42:20;3.35;;;1.90;;
34134;SDS011;20410;55.578;12.968;2022-07-29T08:44:46;5.50;;;2.10;;
34134;SDS011;20410;55.578;12.968;2022-07-29T08:47:15;7.43;;;2.17;;
34134;SDS011;20410;55.578;12.968;2022-07-29T08:49:41;3.95;;;1.77;;
34134;SDS011;20410;55.578;12.968;2022-07-29T08:52:09;5.03;;;1.92;;
34134;SDS011;20410;55.578;12.968;2022-07-29T08:54:36;5.13;;;1.85;;
34134;SDS011;20410;55.578;12.968;2022-07-29T08:57:03;5.47;;;2.00;;
34134;SDS011;20410;55.578;12.968;2022-07-29T08:59:29;3.58;;;1.80;;
34134;SDS011;20410;55.578;12.968;2022-07-29T09:01:59;4.25;;;1.90;;
34134;SDS011;20410;55.578;12.968;2022-07-29T09:04:28;3.75;;;1.60;;
34134;SDS011;20410;55.578;12.968;2022-07-29T09:06:59;4.13;;;1.80;;
34134;SDS011;20410;55.578;12.968;2022-07-29T09:09:27;3.95;;;1.90;;
34134;SDS011;20410;55.578;12.968;2022-07-29T09:11:53;3.00;;;1.70;;
34134;SDS011;20410;55.578;12.968;2022-07-29T09:14:18;3.33;;;1.67;;
34134;SDS011;20410;55.578;12.968;2022-07-29T09:16:51;3.33;;;1.88;;
34134;SDS011;20410;55.578;12.968;2022-07-29T09:21:55;3.95;;;1.77;;
34134;SDS011;20410;55.578;12.968;2022-07-29T09:24:43;3.90;;;1.50;;
34134;SDS011;20410;55.578;12.968;2022-07-29T09:29:45;4.93;;;2.08;;
34134;SDS011;20410;55.578;12.968;2022-07-29T09:32:11;5.55;;;2.22;;
34134;SDS011;20410;55.578;12.968;2022-07-29T09:34:37;3.40;;;1.80;;
34134;SDS011;20410;55.578;12.968;2022-07-29T09:37:03;6.35;;;2.08;;
34134;SDS011;20410;55.578;12.968;2022-07-29T09:39:37;5.43;;;1.80;;
34134;SDS011;20410;55.578;12.968;2022-07-29T09:42:10;2.60;;;1.38;;
34134;SDS011;20410;55.578;12.968;2022-07-29T09:44:44;4.38;;;1.45;;
34134;SDS011;20410;55.578;12.968;2022-07-29T09:47:12;4.15;;;1.77;;
34134;SDS011;20410;55.578;12.968;2022-07-29T09:49:55;6.45;;;2.00;;
34134;SDS011;20410;55.578;12.968;2022-07-29T09:52:26;3.78;;;1.50;;
34134;SDS011;20410;55.578;12.968;2022-07-29T09:54:52;2.40;;;1.48;;
34134;SDS011;20410;55.578;12.968;2022-07-29T09:57:23;3.78;;;1.60;;
34134;SDS011;20410;55.578;12.968;2022-07-29T09:59:57;3.92;;;1.58;;
34134;SDS011;20410;55.578;12.968;2022-07-29T10:02:27;4.65;;;1.52;;
34134;SDS011;20410;55.578;12.968;2022-07-29T10:04:54;2.97;;;1.60;;
34134;SDS011;20410;55.578;12.968;2022-07-29T10:07:20;6.82;;;1.92;;
34134;SDS011;20410;55.578;12.968;2022-07-29T10:09:56;3.63;;;1.70;;
34134;SDS011;20410;55.578;12.968;2022-07-29T10:12:22;2.85;;;1.63;;
34134;SDS011;20410;55.578;12.968;2022-07-29T10:14:49;2.47;;;1.52;;
34134;SDS011;20410;55.578;12.968;2022-07-29T10:17:16;2.72;;;1.60;;
34134;SDS011;20410;55.578;12.968;2022-07-29T10:19:43;4.05;;;1.50;;
34134;SDS011;20410;55.578;12.968;2022-07-29T10:22:10;3.00;;;1.48;;
34134;SDS011;20410;55.578;12.968;2022-07-29T10:24:36;4.00;;;1.77;;
34134;SDS011;20410;55.578;12.968;2022-07-29T10:27:04;3.20;;;1.50;;
34134;SDS011;20410;55.578;12.968;2022-07-29T10:29:31;4.80;;;1.52;;
34134;SDS011;20410;55.578;12.968;2022-07-29T10:35:08;2.83;;;1.67;;
34134;SDS011;20410;55.578;12.968;2022-07-29T10:37:57;4.68;;;1.60;;
34134;SDS011;20410;55.578;12.968;2022-07-29T10:43:43;2.90;;;1.38;;
34134;SDS011;20410;55.578;12.968;2022-07-29T10:46:11;4.85;;;1.90;;
34134;SDS011;20410;55.578;12.968;2022-07-29T10:49:03;2.28;;;1.40;;
34134;SDS011;20410;55.578;12.968;2022-07-29T10:51:56;3.80;;;1.60;;
34134;SDS011;20410;55.578;12.968;2022-07-29T10:59:48;2.65;;;1.30;;
34134;SDS011;20410;55.578;12.968;2022-07-29T11:05:11;2.38;;;1.40;;
34134;SDS011;20410;55.578;12.968;2022-07-29T11:07:38;2.45;;;1.40;;
34134;SDS011;20410;55.578;12.968;2022-07-29T11:10:24;3.35;;;1.70;;
34134;SDS011;20410;55.578;12.968;2022-07-29T11:12:50;3.00;;;1.50;;
34134;SDS011;20410;55.578;12.968;2022-07-29T11:15:20;2.85;;;1.40;;
34134;SDS011;20410;55.578;12.968;2022-07-29T11:28:54;4.28;;;1.52;;
34134;SDS011;20410;55.578;12.968;2022-07-29T11:34:15;3.90;;;1.70;;
34134;SDS011;20410;55.578;12.968;2022-07-29T11:39:37;5.88;;;1.52;;
34134;SDS011;20410;55.578;12.968;2022-07-29T11:47:26;3.25;;;1.63;;
34134;SDS011;20410;55.578;12.968;2022-07-29T11:49:53;3.90;;;1.83;;
34134;SDS011;20410;55.578;12.968;2022-07-29T11:52:21;3.55;;;1.80;;
34134;SDS011;20410;55.578;12.968;2022-07-29T11:54:47;3.95;;;1.73;;
34134;SDS011;20410;55.578;12.968;2022-07-29T11:57:14;3.35;;;1.67;;
34134;SDS011;20410;55.578;12.968;2022-07-29T11:59:42;5.60;;;1.85;;
34134;SDS011;20410;55.578;12.968;2022-07-29T12:02:09;4.60;;;1.92;;
34134;SDS011;20410;55.578;12.968;2022-07-29T12:04:55;3.50;;;2.10;;
34134;SDS011;20410;55.578;12.968;2022-07-29T12:09:56;3.05;;;2.00;;
34134;SDS011;20410;55.578;12.968;2022-07-29T12:12:22;5.75;;;1.73;;
34134;SDS011;20410;55.578;12.968;2022-07-29T12:14:49;5.10;;;2.00;;
34134;SDS011;20410;55.578;12.968;2022-07-29T12:19:52;3.53;;;1.75;;
34134;SDS011;20410;55.578;12.968;2022-07-29T12:22:24;7.50;;;1.80;;
34134;SDS011;20410;55.578;12.968;2022-07-29T12:24:54;4.22;;;1.70;;
34134;SDS011;20410;55.578;12.968;2022-07-29T12:27:21;3.90;;;1.70;;
34134;SDS011;20410;55.578;12.968;2022-07-29T12:29:59;3.97;;;1.83;;
34134;SDS011;20410;55.578;12.968;2022-07-29T12:32:37;3.60;;;1.65;;
34134;SDS011;20410;55.578;12.968;2022-07-29T12:35:06;5.65;;;1.60;;
34134;SDS011;20410;55.578;12.968;2022-07-29T12:37:34;3.78;;;1.80;;
34134;SDS011;20410;55.578;12.968;2022-07-29T12:40:02;4.22;;;1.80;;
34134;SDS011;20410;55.578;12.968;2022-07-29T12:42:29;2.83;;;1.80;;
34134;SDS011;20410;55.578;12.968;2022-07-29T12:44:55;5.47;;;1.85;;
34134;SDS011;20410;55.578;12.968;2022-07-29T12:47:21;6.15;;;2.13;;
34134;SDS011;20410;55.578;12.968;2022-07-29T12:49:47;2.97;;;1.65;;
34134;SDS011;20410;55.578;12.968;2022-07-29T12:52:23;1.92;;;1.50;;
34134;SDS011;20410;55.578;12.968;2022-07-29T12:54:53;2.92;;;1.60;;
34134;SDS011;20410;55.578;12.968;2022-07-29T12:57:19;3.28;;;1.70;;
34134;SDS011;20410;55.578;12.968;2022-07-29T12:59:45;3.25;;;1.70;;
34134;SDS011;20410;55.578;12.968;2022-07-29T13:02:26;4.00;;;1.60;;
34134;SDS011;20410;55.578;12.968;2022-07-29T13:04:58;5.10;;;2.40;;
34134;SDS011;20410;55.578;12.968;2022-07-29T13:07:29;4.45;;;1.63;;
34134;SDS011;20410;55.578;12.968;2022-07-29T13:13:01;3.20;;;1.73;;
34134;SDS011;20410;55.578;12.968;2022-07-29T13:15:27;2.80;;;1.80;;
34134;SDS011;20410;55.578;12.968;2022-07-29T13:17:53;5.50;;;2.22;;
34134;SDS011;20410;55.578;12.968;2022-07-29T13:20:18;2.92;;;1.90;;
34134;SDS011;20410;55.578;12.968;2022-07-29T13:22:49;4.60;;;1.75;;
34134;SDS011;20410;55.578;12.968;2022-07-29T13:25:23;3.55;;;1.80;;
34134;SDS011;20410;55.578;12.968;2022-07-29T13:27:56;3.10;;;1.65;;
34134;SDS011;20410;55.578;12.968;2022-07-29T13:30:22;2.97;;;1.40;;
34134;SDS011;20410;55.578;12.968;2022-07-29T13:32:49;4.20;;;1.65;;
34134;SDS011;20410;55.578;12.968;2022-07-29T13:35:15;4.75;;;1.98;;
34134;SDS011;20410;55.578;12.968;2022-07-29T13:37:41;3.22;;;1.70;;
34134;SDS011;20410;55.578;12.968;2022-07-29T13:40:07;3.78;;;1.70;;
34134;SDS011;20410;55.578;12.968;2022-07-29T13:42:34;3.88;;;1.83;;
34134;SDS011;20410;55.578;12.968;2022-07-29T13:45:00;5.95;;;1.65;;
34134;SDS011;20410;55.578;12.968;2022-07-29T13:47:26;2.88;;;1.80;;
34134;SDS011;20410;55.578;12.968;2022-07-29T13:49:52;5.22;;;1.75;;
34134;SDS011;20410;55.578;12.968;2022-07-29T13:52:18;4.55;;;1.90;;
34134;SDS011;20410;55.578;12.968;2022-07-29T13:54:44;5.35;;;2.08;;
34134;SDS011;20410;55.578;12.968;2022-07-29T13:57:10;4.85;;;1.90;;
34134;SDS011;20410;55.578;12.968;2022-07-29T13:59:36;3.88;;;1.75;;
34134;SDS011;20410;55.578;12.968;2022-07-29T14:02:02;5.95;;;2.03;;
34134;SDS011;20410;55.578;12.968;2022-07-29T14:04:27;7.38;;;2.42;;
34134;SDS011;20410;55.578;12.968;2022-07-29T14:06:53;5.80;;;1.85;;
34134;SDS011;20410;55.578;12.968;2022-07-29T14:09:19;4.25;;;1.73;;
34134;SDS011;20410;55.578;12.968;2022-07-29T14:11:45;3.25;;;1.77;;
34134;SDS011;20410;55.578;12.968;2022-07-29T14:14:11;4.13;;;1.88;;
34134;SDS011;20410;55.578;12.968;2022-07-29T14:16:37;4.57;;;1.80;;
34134;SDS011;20410;55.578;12.968;2022-07-29T14:19:03;3.83;;;1.80;;
34134;SDS011;20410;55.578;12.968;2022-07-29T14:21:28;3.53;;;1.85;;
34134;SDS011;20410;55.578;12.968;2022-07-29T14:23:54;3.50;;;1.85;;
34134;SDS011;20410;55.578;12.968;2022-07-29T14:26:20;5.25;;;1.85;;
34134;SDS011;20410;55.578;12.968;2022-07-29T14:28:47;3.25;;;1.85;;
34134;SDS011;20410;55.578;12.968;2022-07-29T14:31:13;4.07;;;1.80;;
34134;SDS011;20410;55.578;12.968;2022-07-29T14:33:39;4.88;;;1.90;;
34134;SDS011;20410;55.578;12.968;2022-07-29T14:36:04;4.70;;;1.98;;
34134;SDS011;20410;55.578;12.968;2022-07-29T14:38:30;4.10;;;1.67;;
34134;SDS011;20410;55.578;12.968;2022-07-29T14:40:55;5.35;;;1.90;;
34134;SDS011;20410;55.578;12.968;2022-07-29T14:43:21;5.68;;;1.80;;
34134;SDS011;20410;55.578;12.968;2022-07-29T14:45:47;3.97;;;1.90;;
34134;SDS011;20410;55.578;12.968;2022-07-29T14:48:12;3.97;;;1.67;;
34134;SDS011;20410;55.578;12.968;2022-07-29T14:50:38;5.43;;;1.85;;
34134;SDS011;20410;55.578;12.968;2022-07-29T14:53:04;4.55;;;1.95;;
34134;SDS011;20410;55.578;12.968;2022-07-29T14:55:29;2.90;;;1.60;;
34134;SDS011;20410;55.578;12.968;2022-07-29T14:57:55;2.90;;;1.70;;
34134;SDS011;20410;55.578;12.968;2022-07-29T15:00:21;3.40;;;1.73;;
34134;SDS011;20410;55.578;12.968;2022-07-29T15:02:47;4.95;;;2.08;;
34134;SDS011;20410;55.578;12.968;2022-07-29T15:05:13;4.30;;;1.70;;
34134;SDS011;20410;55.578;12.968;2022-07-29T15:07:38;3.17;;;1.67;;
34134;SDS011;20410;55.578;12.968;2022-07-29T15:10:04;4.75;;;1.60;;
34134;SDS011;20410;55.578;12.968;2022-07-29T15:12:31;2.10;;;1.65;;
34134;SDS011;20410;55.578;12.968;2022-07-29T15:14:56;4.28;;;1.95;;
34134;SDS011;20410;55.578;12.968;2022-07-29T15:17:22;4.20;;;1.80;;
34134;SDS011;20410;55.578;12.968;2022-07-29T15:19:48;3.88;;;1.90;;
34134;SDS011;20410;55.578;12.968;2022-07-29T15:22:13;3.22;;;2.00;;
34134;SDS011;20410;55.578;12.968;2022-07-29T15:24:39;2.90;;;1.80;;
34134;SDS011;20410;55.578;12.968;2022-07-29T15:27:04;3.63;;;2.08;;
34134;SDS011;20410;55.578;12.968;2022-07-29T15:29:30;4.88;;;2.00;;
34134;SDS011;20410;55.578;12.968;2022-07-29T15:31:56;3.97;;;1.92;;
34134;SDS011;20410;55.578;12.968;2022-07-29T15:34:21;3.75;;;2.00;;
34134;SDS011;20410;55.578;12.968;2022-07-29T15:36:48;2.53;;;1.80;;
34134;SDS011;20410;55.578;12.968;2022-07-29T15:39:15;3.30;;;2.10;;